Time;durP1;ratioP1;P1;durP2;ratioP2;P2;SDS_P1;SDS_P2;PMS_P1;PMS_P2;Temp;Humidity;BMP_temperature;BMP_pressure;BME280_temperature;BME280_humidity;BME280_pressure;Samples;Min_cycle;Max_cycle;Signal;HPM_P1;HPM_P2
2022/01/21 00:00:20;;;;;;;;;14.75;14.75;;;;;21.67;42.45;102741.97;5082724;27;45231;-70
2022/01/21 00:02:46;;;;;;;;;18.50;14.75;;;;;21.67;42.38;102735.78;5081681;28;45204;-71
2022/01/21 00:05:11;;;;;;;;;20.00;14.75;;;;;21.69;42.39;102736.66;5064571;28;45524;-70
2022/01/21 00:07:36;;;;;;;;;16.75;13.50;;;;;21.68;42.30;102738.41;5047462;28;47171;-71
2022/01/21 00:10:03;;;;;;;;;17.50;15.25;;;;;21.69;42.51;102732.22;5081198;28;45343;-71
2022/01/21 00:12:30;;;;;;;;;12.00;10.00;;;;;21.69;42.23;102728.66;5064577;28;45357;-71
2022/01/21 00:14:56;;;;;;;;;17.75;16.50;;;;;21.70;42.46;102738.41;5047786;28;45284;-71
2022/01/21 00:17:23;;;;;;;;;18.00;15.50;;;;;21.71;42.33;102729.53;5081834;27;62295;-71
2022/01/21 00:19:52;;;;;;;;;19.75;14.75;;;;;21.70;42.04;102727.78;5064434;28;45386;-71
2022/01/21 00:30:30;;;;;;;;;17.00;15.75;;;;;21.69;42.28;102718.91;5067265;28;45326;-71
2022/01/21 00:32:55;;;;;;;;;19.75;18.25;;;;;21.70;42.23;102719.81;5064468;28;45891;-71
2022/01/21 00:35:20;;;;;;;;;20.00;17.50;;;;;21.70;42.68;102712.72;5080693;28;58409;-71
2022/01/21 00:37:46;;;;;;;;;20.25;19.75;;;;;21.71;42.26;102724.22;5046270;28;65271;-71
2022/01/21 00:40:15;;;;;;;;;23.50;20.00;;;;;21.71;41.94;102722.44;5080129;28;45358;-71
2022/01/21 00:45:11;;;;;;;;;19.50;16.75;;;;;21.71;42.22;102710.94;5060726;28;45398;-71
2022/01/21 00:47:36;;;;;;;;;19.50;18.50;;;;;21.70;42.59;102711.84;5081055;27;47803;-71
2022/01/21 00:50:02;;;;;;;;;18.50;18.00;;;;;21.70;42.51;102711.84;5079871;28;64891;-71
2022/01/21 00:52:28;;;;;;;;;22.00;16.25;;;;;21.70;42.05;102703.84;5064267;28;45347;-71
2022/01/21 00:54:53;;;;;;;;;18.00;14.75;;;;;21.68;42.59;102711.84;5080167;28;62579;-71
2022/01/21 00:57:18;;;;;;;;;20.50;17.75;;;;;21.69;42.19;102721.56;5080723;28;45275;-71
2022/01/21 00:59:44;;;;;;;;;17.00;14.50;;;;;21.71;42.33;102716.25;5062941;28;57460;-71
2022/01/21 01:02:09;;;;;;;;;20.25;18.25;;;;;21.70;41.86;102714.50;5060057;28;54738;-71
2022/01/21 01:04:35;;;;;;;;;18.25;14.75;;;;;21.70;42.46;102712.72;5054031;28;56248;-70
2022/01/21 01:07:00;;;;;;;;;18.75;17.50;;;;;21.71;42.22;102718.91;5080028;28;61785;-71
2022/01/21 01:09:25;;;;;;;;;23.00;18.50;;;;;21.71;42.47;102716.25;5080440;28;45484;-70
2022/01/21 01:12:13;;;;;;;;;17.50;16.00;;;;;21.71;42.54;102717.13;5077045;28;46545;-71
2022/01/21 01:20:06;;;;;;;;;18.50;16.25;;;;;21.70;42.41;102714.50;5053824;28;45353;-71
2022/01/21 01:27:58;;;;;;;;;19.00;15.00;;;;;21.69;42.41;102710.94;5065969;28;45748;-70
2022/01/21 01:30:26;;;;;;;;;16.50;13.50;;;;;21.70;42.10;102717.16;5079913;28;45303;-71
2022/01/21 01:32:53;;;;;;;;;20.00;15.50;;;;;21.70;42.45;102706.50;5080247;28;45357;-71
2022/01/21 01:35:20;;;;;;;;;17.00;14.75;;;;;21.70;42.51;102711.84;5063247;28;45693;-71
2022/01/21 01:40:25;;;;;;;;;20.50;16.25;;;;;21.70;42.63;102709.19;5080002;28;45428;-71
2022/01/21 01:50:50;;;;;;;;;18.50;16.50;;;;;21.69;42.48;102718.91;5053199;28;45374;-71
2022/01/21 01:53:16;;;;;;;;;17.50;14.50;;;;;21.68;42.59;102717.16;5043250;28;45410;-71
2022/01/21 01:55:43;;;;;;;;;20.25;15.75;;;;;21.68;42.70;102714.50;5059547;28;45285;-70
2022/01/21 01:58:12;;;;;;;;;20.00;16.25;;;;;21.69;42.46;102723.34;5074557;28;45282;-70
2022/01/21 02:00:38;;;;;;;;;18.25;15.25;;;;;21.69;42.40;102718.03;5055561;28;45299;-70
2022/01/21 02:03:07;;;;;;;;;16.00;13.50;;;;;21.69;42.41;102726.00;5059398;28;45333;-71
2022/01/21 02:05:32;;;;;;;;;21.25;16.75;;;;;21.68;42.45;102719.81;5059591;28;45416;-70
2022/01/21 02:07:57;;;;;;;;;15.00;15.00;;;;;21.68;42.44;102726.91;5061450;28;53317;-71
2022/01/21 02:10:23;;;;;;;;;18.50;15.75;;;;;21.69;42.59;102728.66;5058042;28;65148;-71
2022/01/21 02:12:48;;;;;;;;;20.50;16.50;;;;;21.68;42.68;102724.25;5075019;28;54111;-70
2022/01/21 02:15:14;;;;;;;;;13.00;12.00;;;;;21.69;42.73;102726.00;5079409;28;45441;-71
2022/01/21 02:22:50;;;;;;;;;16.00;14.50;;;;;21.68;42.70;102733.09;5062765;28;45338;-71
2022/01/21 02:25:17;;;;;;;;;13.25;12.75;;;;;21.68;42.50;102732.22;5080580;28;45515;-71
2022/01/21 02:27:43;;;;;;;;;19.25;16.25;;;;;21.68;42.32;102727.78;5080482;27;46592;-70
2022/01/21 02:30:17;;;;;;;;;12.75;12.75;;;;;21.68;42.54;102734.88;5080308;27;45524;-70
2022/01/21 02:32:43;;;;;;;;;17.50;12.75;;;;;21.67;42.56;102734.00;5079318;28;45448;-71
2022/01/21 02:35:08;;;;;;;;;18.75;12.25;;;;;21.68;42.31;102727.78;5062511;28;45425;-71
2022/01/21 02:37:35;;;;;;;;;17.75;15.00;;;;;21.69;42.55;102718.03;5061904;28;46558;-71
2022/01/21 02:40:00;;;;;;;;;13.00;12.50;;;;;21.69;42.88;102728.66;5045571;28;45661;-71
2022/01/21 02:42:25;;;;;;;;;20.00;16.00;;;;;21.69;42.59;102720.69;5062071;28;45247;-71
2022/01/21 02:44:51;;;;;;;;;17.00;11.75;;;;;21.69;42.66;102723.34;5044635;28;62427;-70
2022/01/21 02:47:16;;;;;;;;;16.75;15.50;;;;;21.69;42.76;102718.03;5061714;28;47907;-71
2022/01/21 02:49:42;;;;;;;;;14.75;12.00;;;;;21.68;42.29;102722.47;5079111;28;45339;-70
2022/01/21 02:52:08;;;;;;;;;17.25;14.00;;;;;21.67;42.91;102726.03;5062092;28;45759;-70
2022/01/21 02:54:36;;;;;;;;;16.75;15.75;;;;;21.68;42.67;102718.94;5078876;27;45449;-70
2022/01/21 02:57:05;;;;;;;;;16.00;13.25;;;;;21.67;42.49;102718.06;5058301;28;46407;-71
2022/01/21 02:59:31;;;;;;;;;17.50;14.00;;;;;21.67;42.66;102722.50;5041376;28;45363;-70
2022/01/21 03:01:57;;;;;;;;;17.25;15.25;;;;;21.67;42.91;102720.72;5076268;28;45368;-71
2022/01/21 03:04:55;;;;;;;;;15.75;15.00;;;;;21.67;42.35;102727.81;5041628;28;48045;-71
2022/01/21 03:07:08;;;;;;;;;14.00;13.75;;;;;21.66;42.69;102729.59;5065738;28;46157;-71
2022/01/21 03:09:33;;;;;;;;;17.75;15.00;;;;;21.65;42.72;102725.16;5060981;28;59798;-71
2022/01/21 03:11:59;;;;;;;;;17.75;14.75;;;;;21.66;42.61;102732.25;5078508;28;56013;-71
2022/01/21 03:14:24;;;;;;;;;16.50;14.50;;;;;21.65;42.86;102725.16;5061405;28;45200;-71
2022/01/21 03:16:49;;;;;;;;;18.50;13.00;;;;;21.65;42.93;102725.16;5079129;27;67191;-71
2022/01/21 03:19:15;;;;;;;;;16.00;11.50;;;;;21.66;42.42;102723.38;5044430;28;45746;-70
2022/01/21 03:21:40;;;;;;;;;17.25;13.75;;;;;21.65;42.72;102721.63;5045084;28;45255;-70
2022/01/21 03:24:06;;;;;;;;;14.50;12.50;;;;;21.66;42.52;102729.59;5078688;28;45397;-70
2022/01/21 03:26:31;;;;;;;;;14.00;11.50;;;;;21.66;42.90;102734.00;5078411;28;45371;-71
2022/01/21 03:28:58;;;;;;;;;15.25;13.25;;;;;21.66;42.70;102734.00;5077990;28;54444;-70
2022/01/21 03:31:24;;;;;;;;;17.50;15.50;;;;;21.64;43.02;102727.84;5078682;28;45441;-71
2022/01/21 03:33:49;;;;;;;;;16.00;14.75;;;;;21.65;42.70;102726.94;5041511;28;45636;-71
2022/01/21 03:36:15;;;;;;;;;15.25;14.75;;;;;21.65;42.86;102732.25;5058138;28;46199;-71
2022/01/21 03:38:40;;;;;;;;;11.25;10.75;;;;;21.64;42.87;102744.66;5058160;28;45343;-70
2022/01/21 03:41:06;;;;;;;;;13.75;13.25;;;;;21.64;42.68;102735.81;5044819;28;45226;-71
2022/01/21 03:43:31;;;;;;;;;12.75;12.00;;;;;21.65;42.60;102735.78;5040879;28;53294;-70
2022/01/21 03:45:57;;;;;;;;;13.50;12.00;;;;;21.65;42.68;102726.94;5060834;28;60220;-70
2022/01/21 03:48:22;;;;;;;;;14.25;13.00;;;;;21.65;42.71;102742.88;5061522;28;45648;-71
2022/01/21 03:50:48;;;;;;;;;15.00;12.00;;;;;21.65;42.90;102745.53;5061536;28;45260;-70
2022/01/21 03:53:13;;;;;;;;;14.50;13.00;;;;;21.65;42.75;102748.19;5061378;28;45275;-70
2022/01/21 03:55:38;;;;;;;;;16.00;14.50;;;;;21.65;42.76;102750.84;5078005;28;46237;-70
2022/01/21 03:58:05;;;;;;;;;12.25;12.00;;;;;21.65;42.36;102749.06;5061153;28;45463;-71
2022/01/21 04:00:33;;;;;;;;;15.50;12.00;;;;;21.64;43.00;102738.47;5061136;28;45654;-70
2022/01/21 04:02:59;;;;;;;;;12.75;11.75;;;;;21.64;42.73;102735.81;5044534;28;45584;-71
2022/01/21 04:05:25;;;;;;;;;12.50;12.00;;;;;21.63;42.87;102742.91;5057673;28;48551;-71
2022/01/21 04:07:51;;;;;;;;;17.50;13.25;;;;;21.64;42.34;102738.47;5077912;28;45230;-71
2022/01/21 04:10:16;;;;;;;;;15.75;14.50;;;;;21.64;42.42;102743.78;5078013;28;45334;-70
2022/01/21 04:12:41;;;;;;;;;13.75;12.25;;;;;21.63;42.98;102740.25;5060902;28;58764;-71
2022/01/21 04:15:07;;;;;;;;;10.75;10.75;;;;;21.63;42.43;102740.25;5063822;28;60621;-70
2022/01/21 04:17:32;;;;;;;;;12.25;11.75;;;;;21.62;42.66;102754.38;5062680;28;45452;-70
2022/01/21 04:19:58;;;;;;;;;11.50;10.00;;;;;21.62;42.66;102753.50;5081649;28;45278;-71
2022/01/21 04:22:23;;;;;;;;;15.00;12.50;;;;;21.62;42.38;102748.19;5043541;28;61104;-71
2022/01/21 04:24:49;;;;;;;;;14.00;11.50;;;;;21.62;42.92;102766.78;5063325;28;62164;-70
2022/01/21 04:27:18;;;;;;;;;13.50;11.00;;;;;21.61;42.67;102767.69;5064187;28;45326;-71
2022/01/21 04:29:44;;;;;;;;;12.75;8.25;;;;;21.60;42.80;102766.81;5064775;28;45404;-70
2022/01/21 04:32:09;;;;;;;;;14.25;13.25;;;;;21.60;42.53;102769.47;5081137;28;45474;-71
2022/01/21 04:34:35;;;;;;;;;13.00;10.00;;;;;21.61;42.84;102760.59;5064246;28;47348;-71
2022/01/21 04:37:01;;;;;;;;;11.25;10.00;;;;;21.61;42.82;102762.38;5060961;28;45451;-71
2022/01/21 04:39:32;;;;;;;;;15.75;11.25;;;;;21.61;42.66;102767.69;5081001;28;45266;-71
2022/01/21 04:47:26;;;;;;;;;11.50;10.00;;;;;21.60;42.70;102764.16;5080886;28;45529;-70
2022/01/21 04:49:52;;;;;;;;;10.50;10.50;;;;;21.61;42.14;102762.38;5082244;27;45324;-70
2022/01/21 04:52:17;;;;;;;;;12.75;10.75;;;;;21.61;42.36;102762.38;5080566;28;45314;-70
2022/01/21 04:54:42;;;;;;;;;8.25;6.25;;;;;21.61;42.57;102760.59;5081872;27;47254;-70
2022/01/21 04:57:08;;;;;;;;;13.25;11.25;;;;;21.62;42.88;102756.16;5081868;27;45374;-71
2022/01/21 04:59:34;;;;;;;;;12.25;9.75;;;;;21.62;43.04;102761.47;5063537;28;45501;-71
2022/01/21 05:01:59;;;;;;;;;11.00;8.25;;;;;21.62;42.81;102765.00;5063632;28;45421;-71
2022/01/21 05:04:25;;;;;;;;;7.50;7.50;;;;;21.62;42.95;102765.00;5063566;28;47221;-71
2022/01/21 05:06:52;;;;;;;;;10.75;10.75;;;;;21.62;43.15;102770.31;5063361;28;45467;-71
2022/01/21 05:09:18;;;;;;;;;4.25;4.25;;;;;21.64;42.62;102765.03;5081507;27;45231;-71
2022/01/21 05:11:45;;;;;;;;;10.00;9.00;;;;;21.64;42.62;102773.00;5080479;28;45254;-71
2022/01/21 05:14:23;;;;;;;;;9.00;8.00;;;;;21.63;42.72;102764.16;5063308;28;47426;-71
2022/01/21 05:16:51;;;;;;;;;6.00;6.00;;;;;21.65;42.67;102769.47;5067912;28;45471;-71
2022/01/21 05:19:17;;;;;;;;;10.75;10.00;;;;;21.66;42.78;102772.09;5081420;27;45236;-71
2022/01/21 05:21:44;;;;;;;;;10.25;9.75;;;;;21.65;42.65;102770.34;5081742;27;45480;-71
2022/01/21 05:24:09;;;;;;;;;10.00;9.00;;;;;21.65;42.75;102766.81;5061999;28;46116;-71
2022/01/21 05:26:39;;;;;;;;;10.50;10.00;;;;;21.65;42.98;102774.78;5043141;28;45413;-71
2022/01/21 05:29:05;;;;;;;;;12.50;11.25;;;;;21.65;43.00;102759.72;5043791;28;45539;-71
2022/01/21 05:31:31;;;;;;;;;9.50;6.75;;;;;21.66;42.80;102764.13;5043279;28;45426;-71
2022/01/21 05:33:56;;;;;;;;;10.50;7.50;;;;;21.66;42.78;102768.56;5043025;28;47316;-71
2022/01/21 05:36:21;;;;;;;;;10.00;10.00;;;;;21.66;42.64;102773.88;5047017;28;64802;-71
2022/01/21 05:38:47;;;;;;;;;12.00;10.00;;;;;21.67;42.32;102772.97;5066719;28;48510;-71
2022/01/21 05:41:13;;;;;;;;;9.25;9.00;;;;;21.69;42.36;102781.81;5063093;28;45401;-70
2022/01/21 05:43:45;;;;;;;;;8.25;7.25;;;;;21.70;42.45;102779.16;5063309;28;46609;-70
2022/01/21 05:49:15;;;;;;;;;8.00;7.75;;;;;21.71;42.95;102780.91;5067055;28;45392;-71
2022/01/21 05:51:41;;;;;;;;;8.50;7.00;;;;;21.70;43.01;102781.81;5060001;27;45606;-70
2022/01/21 05:54:08;;;;;;;;;3.25;3.00;;;;;21.73;42.65;102783.59;5081243;27;45366;-71
2022/01/21 05:56:34;;;;;;;;;6.25;6.25;;;;;21.75;42.92;102792.44;5063350;28;45311;-71
2022/01/21 05:59:00;;;;;;;;;7.00;7.00;;;;;21.77;43.42;102792.44;5082441;28;45301;-78
2022/01/21 06:01:26;;;;;;;;;12.50;10.00;;;;;21.76;43.54;102786.22;5043475;28;45306;-71
2022/01/21 06:03:51;;;;;;;;;7.25;6.00;;;;;21.83;43.96;102795.94;5042813;28;48029;-73
2022/01/21 06:06:17;;;;;;;;;9.25;8.00;;;;;21.86;44.51;102795.91;5053204;28;45325;-73
2022/01/21 06:08:42;;;;;;;;;10.25;9.00;;;;;21.89;43.99;102787.94;5059361;28;45339;-71
2022/01/21 06:11:08;;;;;;;;;8.50;8.50;;;;;21.91;44.14;102794.13;5054022;28;45394;-71
2022/01/21 06:13:34;;;;;;;;;14.00;11.00;;;;;21.97;44.70;102802.06;5042307;28;48092;-74
2022/01/21 06:16:00;;;;;;;;;13.50;12.00;;;;;22.00;44.94;102794.09;5039838;28;45548;-73
2022/01/21 06:18:25;;;;;;;;;18.00;14.50;;;;;22.04;44.83;102799.38;5079247;28;45941;-73
2022/01/21 06:20:51;;;;;;;;;18.00;10.75;;;;;22.06;45.02;102797.59;5059732;28;45274;-77
2022/01/21 06:23:17;;;;;;;;;9.00;9.00;;;;;22.08;45.03;102802.06;5058910;28;45315;-71
2022/01/21 06:25:42;;;;;;;;;17.75;11.00;;;;;22.08;44.35;102794.09;5053491;28;45350;-71
2022/01/21 06:28:08;;;;;;;;;13.00;10.50;;;;;22.08;44.10;102798.50;5042149;28;45315;-71
2022/01/21 06:30:33;;;;;;;;;11.75;9.00;;;;;22.07;43.45;102794.06;5036537;28;45359;-71
2022/01/21 06:32:59;;;;;;;;;9.50;9.00;;;;;22.06;44.12;102794.91;5062006;28;53125;-71
2022/01/21 06:35:24;;;;;;;;;10.00;8.75;;;;;22.04;43.92;102797.59;5059456;28;45255;-71
2022/01/21 06:37:49;;;;;;;;;11.75;9.50;;;;;22.04;43.94;102794.06;5078210;28;45425;-71
2022/01/21 06:40:17;;;;;;;;;11.75;10.75;;;;;22.05;43.70;102801.13;5042137;28;54234;-71
2022/01/21 06:42:43;;;;;;;;;10.00;8.50;;;;;22.03;44.02;102798.50;5079365;27;47149;-70
2022/01/21 06:45:08;;;;;;;;;8.25;7.50;;;;;22.02;44.14;102802.94;5061792;27;45436;-71
2022/01/21 06:47:34;;;;;;;;;8.50;8.50;;;;;22.02;43.72;102802.94;5079852;28;45337;-71
2022/01/21 06:49:59;;;;;;;;;9.75;9.00;;;;;22.01;43.54;102806.47;5059515;28;45473;-71
2022/01/21 06:52:28;;;;;;;;;14.00;10.00;;;;;22.02;43.57;102802.03;5061892;27;47540;-71
2022/01/21 06:54:54;;;;;;;;;13.00;7.00;;;;;22.01;43.37;102808.25;5042305;28;46382;-70
2022/01/21 06:57:19;;;;;;;;;13.50;9.25;;;;;22.01;44.26;102817.13;5041839;28;45298;-71
2022/01/21 06:59:45;;;;;;;;;8.75;7.50;;;;;22.01;43.96;102813.59;5035760;28;45453;-72
2022/01/21 07:02:10;;;;;;;;;11.25;9.75;;;;;22.00;43.88;102820.69;5041560;28;48121;-69
2022/01/21 07:04:35;;;;;;;;;9.50;9.00;;;;;22.01;43.63;102824.22;5055703;28;45504;-70
2022/01/21 07:07:01;;;;;;;;;13.75;10.50;;;;;22.00;43.99;102825.09;5061942;28;46029;-70
2022/01/21 07:09:27;;;;;;;;;11.75;7.75;;;;;21.99;43.44;102833.97;5044668;28;45769;-71
2022/01/21 07:11:53;;;;;;;;;11.00;8.00;;;;;21.99;44.10;102833.97;5061588;28;48194;-70
2022/01/21 07:14:19;;;;;;;;;9.50;9.25;;;;;21.99;43.61;102841.97;5061629;28;45378;-70
2022/01/21 07:16:45;;;;;;;;;8.75;7.75;;;;;21.98;43.49;102841.06;5078864;28;45357;-71
2022/01/21 07:19:10;;;;;;;;;14.50;8.50;;;;;21.96;43.53;102833.97;5041445;28;46474;-70
2022/01/21 07:21:35;;;;;;;;;13.50;10.75;;;;;21.96;43.24;102839.28;5058141;28;46564;-70
2022/01/21 07:24:01;;;;;;;;;11.00;8.00;;;;;21.96;43.53;102850.81;5058253;28;59296;-71
2022/01/21 07:26:26;;;;;;;;;10.00;10.00;;;;;21.96;43.60;102840.19;5061753;28;45247;-71
2022/01/21 07:28:52;;;;;;;;;14.00;12.00;;;;;21.94;43.59;102847.28;5074961;28;48045;-71
2022/01/21 07:31:17;;;;;;;;;12.00;8.00;;;;;21.94;43.77;102852.59;5044727;28;48329;-71
2022/01/21 07:33:42;;;;;;;;;10.25;9.75;;;;;21.93;43.34;102850.84;5044400;28;60147;-71
2022/01/21 07:36:08;;;;;;;;;12.50;10.00;;;;;21.93;43.74;102864.13;5078732;28;45353;-71
2022/01/21 07:38:33;;;;;;;;;8.25;6.75;;;;;21.91;42.61;102855.28;5043959;28;64948;-72
2022/01/21 07:40:59;;;;;;;;;8.00;8.00;;;;;21.86;41.73;102859.72;5044725;28;48369;-71
2022/01/21 07:43:24;;;;;;;;;5.75;5.75;;;;;21.79;40.29;102868.59;5078235;28;45353;-72
2022/01/21 07:45:49;;;;;;;;;9.00;6.00;;;;;21.70;39.07;102863.31;5079587;27;46316;-72
2022/01/21 07:48:15;;;;;;;;;6.75;5.00;;;;;21.60;38.84;102865.13;5073567;28;46468;-73
2022/01/21 07:50:40;;;;;;;;;5.75;4.25;;;;;21.56;38.26;102870.47;5078484;28;55201;-72
2022/01/21 07:53:06;;;;;;;;;4.50;4.50;;;;;21.56;38.74;102873.13;5081884;28;45487;-71
2022/01/21 07:55:31;;;;;;;;;6.75;5.75;;;;;21.57;39.13;102877.53;5079761;28;45555;-71
2022/01/21 07:57:57;;;;;;;;;5.50;5.25;;;;;21.60;39.24;102877.53;5046932;28;45884;-71
2022/01/21 08:00:22;;;;;;;;;7.00;5.25;;;;;21.64;39.00;102874.00;5069487;28;46495;-71
2022/01/21 08:02:47;;;;;;;;;11.75;6.75;;;;;21.66;39.34;102878.41;5056440;28;49809;-71
2022/01/21 08:05:13;;;;;;;;;7.50;6.00;;;;;21.69;39.21;102877.50;5045053;28;45543;-71
2022/01/21 08:07:38;;;;;;;;;7.00;4.00;;;;;21.71;39.53;102878.38;5046787;28;45555;-71
2022/01/21 08:10:04;;;;;;;;;7.50;6.50;;;;;21.72;39.38;102880.16;5062483;28;45445;-71
2022/01/21 08:12:30;;;;;;;;;9.25;7.50;;;;;21.75;39.58;102898.75;5045912;28;45381;-71
2022/01/21 08:14:55;;;;;;;;;5.50;5.50;;;;;21.76;39.75;102889.00;5046603;28;45543;-71
2022/01/21 08:17:21;;;;;;;;;9.25;7.00;;;;;21.79;39.68;102897.84;5075696;28;46412;-71
2022/01/21 08:19:47;;;;;;;;;11.25;7.00;;;;;21.81;39.48;102896.09;5058987;28;46130;-71
2022/01/21 08:22:15;;;;;;;;;7.00;7.00;;;;;21.82;39.64;102899.63;5077989;28;45287;-71
2022/01/21 08:24:41;;;;;;;;;11.00;9.50;;;;;21.83;39.94;102891.66;5064063;28;45379;-72
2022/01/21 08:27:06;;;;;;;;;11.50;10.50;;;;;21.85;39.56;102900.50;5080342;28;46819;-71
2022/01/21 08:29:32;;;;;;;;;7.50;5.50;;;;;21.84;39.99;102892.53;5036555;28;46570;-72
2022/01/21 08:31:57;;;;;;;;;8.25;7.75;;;;;21.87;39.91;102898.72;5063458;28;45302;-72
2022/01/21 08:34:25;;;;;;;;;8.25;6.75;;;;;21.90;40.55;102903.16;5069568;28;49336;-71
2022/01/21 08:36:54;;;;;;;;;7.75;7.25;;;;;21.91;41.02;102895.16;5063856;28;45341;-71
2022/01/21 08:39:19;;;;;;;;;10.00;9.00;;;;;21.93;41.18;102897.81;5058243;28;47492;-71
2022/01/21 08:41:44;;;;;;;;;12.00;10.00;;;;;21.95;41.05;102891.59;5063190;28;45370;-71
2022/01/21 08:44:10;;;;;;;;;10.00;9.25;;;;;21.96;40.77;102898.66;5062891;28;46047;-71
2022/01/21 08:46:35;;;;;;;;;8.50;8.50;;;;;21.98;40.51;102899.56;5062617;28;45493;-71
2022/01/21 08:49:07;;;;;;;;;11.75;10.75;;;;;21.98;41.21;102902.25;5039193;28;47981;-72
2022/01/21 08:51:39;;;;;;;;;8.50;7.00;;;;;21.99;40.96;102903.13;5076227;28;45776;-72
2022/01/21 08:54:04;;;;;;;;;11.00;8.50;;;;;22.00;40.57;102905.75;5057176;28;45345;-72
2022/01/21 08:56:30;;;;;;;;;9.00;8.00;;;;;22.01;40.82;102904.88;5055830;28;45426;-72
2022/01/21 08:58:55;;;;;;;;;6.75;5.50;;;;;22.01;40.54;102902.22;5053629;28;47162;-72
2022/01/21 09:01:21;;;;;;;;;11.50;9.00;;;;;22.02;40.88;102903.09;5075214;28;45872;-72
2022/01/21 09:03:46;;;;;;;;;11.00;8.75;;;;;22.03;40.68;102899.53;5039716;28;45820;-72
2022/01/21 09:06:16;;;;;;;;;9.25;7.75;;;;;22.04;40.67;102900.41;5061092;28;45472;-72
2022/01/21 09:08:43;;;;;;;;;10.00;6.25;;;;;22.03;40.63;102910.19;5035861;28;47395;-73
2022/01/21 09:11:09;;;;;;;;;8.00;8.00;;;;;22.02;40.67;102901.31;5060107;28;45386;-73
2022/01/21 09:13:39;;;;;;;;;7.50;7.50;;;;;22.02;40.73;102903.09;5074583;28;57977;-72
2022/01/21 09:16:05;;;;;;;;;10.00;8.50;;;;;22.04;40.86;102908.41;5044072;28;46453;-72
2022/01/21 09:18:44;;;;;;;;;8.75;8.25;;;;;22.04;41.00;102911.06;5074901;27;62479;-72
2022/01/21 09:21:09;;;;;;;;;8.25;8.00;;;;;22.02;40.71;102909.28;5044537;28;45445;-72
2022/01/21 09:23:35;;;;;;;;;12.75;9.50;;;;;22.04;40.71;102919.03;5039762;28;45356;-72
2022/01/21 09:26:00;;;;;;;;;11.50;10.00;;;;;22.02;40.61;102919.03;5056789;28;45537;-72
2022/01/21 09:28:25;;;;;;;;;7.75;7.00;;;;;22.02;40.63;102922.59;5045475;28;61092;-73
2022/01/21 09:30:51;;;;;;;;;12.25;10.00;;;;;22.02;40.60;102925.25;5060767;28;48188;-72
2022/01/21 09:33:16;;;;;;;;;10.50;9.00;;;;;22.02;41.17;102919.94;5075313;28;45505;-72
2022/01/21 09:35:42;;;;;;;;;8.50;7.25;;;;;22.01;40.92;102925.25;5069701;28;45518;-72
2022/01/21 09:38:07;;;;;;;;;16.50;9.75;;;;;22.00;40.90;102926.16;5062422;28;46580;-73
2022/01/21 09:40:33;;;;;;;;;9.75;8.75;;;;;22.00;41.20;102932.34;5064570;28;45180;-71
2022/01/21 09:42:58;;;;;;;;;9.25;8.75;;;;;22.01;41.31;102930.56;5062740;28;45512;-72
2022/01/21 09:45:24;;;;;;;;;12.00;9.25;;;;;22.02;41.48;102941.19;5074019;28;45513;-72
2022/01/21 09:47:52;;;;;;;;;8.25;8.00;;;;;22.02;41.56;102937.66;5057729;28;48019;-71
2022/01/21 09:50:18;;;;;;;;;9.25;8.00;;;;;22.04;41.33;102948.28;5074253;28;45513;-71
2022/01/21 09:52:51;;;;;;;;;10.50;8.00;;;;;22.02;41.59;102951.84;5054734;28;45360;-70
2022/01/21 09:55:20;;;;;;;;;9.75;7.00;;;;;22.01;41.53;102962.50;5061779;28;45465;-71
2022/01/21 09:57:46;;;;;;;;;12.00;9.00;;;;;22.01;41.57;102967.81;5058698;28;46150;-71
2022/01/21 10:00:12;;;;;;;;;8.75;7.00;;;;;22.00;41.25;102966.94;5061696;28;45332;-71
2022/01/21 10:02:39;;;;;;;;;10.25;7.25;;;;;22.01;41.27;102960.72;5042083;28;45457;-71
2022/01/21 10:05:05;;;;;;;;;8.50;7.00;;;;;22.02;41.54;102966.91;5058978;27;45440;-71
2022/01/21 10:07:31;;;;;;;;;7.50;7.00;;;;;22.02;41.47;102966.91;5055003;28;47840;-71
2022/01/21 10:09:57;;;;;;;;;8.50;6.50;;;;;22.02;41.21;102973.13;5058259;28;45671;-71
2022/01/21 10:12:23;;;;;;;;;10.00;8.25;;;;;22.02;41.35;102969.56;5043920;28;45438;-71
2022/01/21 10:14:48;;;;;;;;;7.75;6.25;;;;;22.02;41.60;102964.25;5038555;28;45431;-71
2022/01/21 10:17:14;;;;;;;;;9.25;7.00;;;;;22.02;41.12;102957.16;5049963;28;47061;-71
2022/01/21 10:19:40;;;;;;;;;10.50;8.50;;;;;22.04;41.45;102964.25;5042022;28;45416;-72
2022/01/21 10:22:11;;;;;;;;;12.75;8.00;;;;;22.02;40.83;102965.13;5063315;28;45510;-71
2022/01/21 10:24:53;;;;;;;;;7.75;7.25;;;;;22.04;41.47;102970.44;5056270;28;45451;-71
2022/01/21 10:27:24;;;;;;;;;10.25;8.50;;;;;22.04;41.08;102964.25;5039168;28;47145;-70
2022/01/21 10:29:49;;;;;;;;;11.50;8.75;;;;;22.04;41.43;102967.78;5079351;28;45381;-71
2022/01/21 10:32:14;;;;;;;;;9.00;9.00;;;;;22.04;41.29;102964.25;5047217;28;45260;-71
2022/01/21 10:34:41;;;;;;;;;9.00;8.00;;;;;22.04;41.36;102965.13;5041692;28;61191;-70
2022/01/21 10:37:27;;;;;;;;;10.00;8.50;;;;;22.05;41.21;102963.34;5042236;28;46223;-70
2022/01/21 10:40:06;;;;;;;;;11.50;9.25;;;;;22.05;41.28;102969.56;5033322;28;45334;-70
2022/01/21 10:42:31;;;;;;;;;10.50;9.50;;;;;22.05;41.38;102976.66;5080087;28;45468;-71
2022/01/21 10:44:58;;;;;;;;;10.00;8.75;;;;;22.05;41.21;102960.69;5061676;28;45511;-74
2022/01/21 10:47:36;;;;;;;;;13.00;11.25;;;;;22.04;41.47;102965.13;5078694;28;46210;-71
2022/01/21 10:50:21;;;;;;;;;8.75;8.75;;;;;22.05;41.47;102964.22;5079012;28;45213;-71
2022/01/21 10:52:50;;;;;;;;;8.25;8.25;;;;;22.04;41.24;102966.91;5079041;28;45334;-72
2022/01/21 10:55:35;;;;;;;;;11.25;10.50;;;;;22.03;41.54;102974.00;5079452;27;45235;-72
2022/01/21 10:58:14;;;;;;;;;13.00;10.50;;;;;22.03;41.27;102966.03;5074227;27;45645;-69
2022/01/21 11:00:58;;;;;;;;;12.00;10.50;;;;;22.01;41.33;102950.06;5067052;28;45475;-72
2022/01/21 11:03:24;;;;;;;;;17.75;9.25;;;;;22.02;41.38;102962.47;5067101;28;45491;-71
2022/01/21 11:05:54;;;;;;;;;12.00;10.00;;;;;22.02;41.17;102957.16;5050349;28;45302;-71
2022/01/21 11:08:23;;;;;;;;;10.50;10.00;;;;;22.01;41.67;102950.06;5046400;28;45336;-71
2022/01/21 11:10:50;;;;;;;;;12.50;11.00;;;;;22.01;41.40;102955.41;5058309;28;45435;-71
2022/01/21 11:13:18;;;;;;;;;11.75;11.00;;;;;22.02;41.12;102956.28;5060333;28;45333;-71
2022/01/21 11:15:48;;;;;;;;;15.50;11.00;;;;;22.00;41.56;102956.28;5079526;27;45223;-71
2022/01/21 11:18:16;;;;;;;;;9.75;9.75;;;;;22.00;41.54;102953.63;5061718;28;46223;-71
2022/01/21 11:20:43;;;;;;;;;14.75;11.00;;;;;22.00;40.93;102950.09;5061545;28;45469;-71
2022/01/21 11:23:09;;;;;;;;;14.00;11.50;;;;;22.00;41.20;102956.28;5046109;28;45327;-71
2022/01/21 11:25:46;;;;;;;;;17.75;12.50;;;;;22.01;41.41;102950.06;5081924;28;45362;-71
2022/01/21 11:28:13;;;;;;;;;14.00;10.50;;;;;22.01;41.32;102954.50;5078204;28;46152;-71
2022/01/21 11:30:39;;;;;;;;;11.75;11.25;;;;;22.00;41.13;102953.63;5060483;28;45454;-70
2022/01/21 11:33:04;;;;;;;;;12.25;10.25;;;;;22.01;41.18;102949.19;5046149;28;45483;-71
2022/01/21 11:35:30;;;;;;;;;12.25;11.25;;;;;22.01;41.29;102943.88;5050519;28;45452;-71
2022/01/21 11:37:56;;;;;;;;;11.25;9.00;;;;;22.02;41.30;102951.84;5044943;28;46711;-71
2022/01/21 11:40:21;;;;;;;;;13.50;11.00;;;;;22.04;41.45;102942.97;5056659;28;45314;-71
2022/01/21 11:42:47;;;;;;;;;15.75;11.50;;;;;22.03;41.13;102939.44;5044943;28;45260;-71
2022/01/21 11:45:30;;;;;;;;;13.75;9.00;;;;;22.03;41.18;102942.09;5055429;28;45393;-71
2022/01/21 11:50:52;;;;;;;;;12.75;11.75;;;;;22.03;41.29;102944.75;5057889;28;45421;-71
2022/01/21 11:53:43;;;;;;;;;10.50;8.50;;;;;22.02;41.63;102941.19;5065393;27;45259;-71
2022/01/21 11:56:37;;;;;;;;;12.00;11.25;;;;;22.03;41.32;102939.44;5081536;28;45428;-71
2022/01/21 11:59:09;;;;;;;;;11.50;10.75;;;;;22.02;41.17;102935.88;5077492;28;47893;-71
2022/01/21 12:01:46;;;;;;;;;12.75;12.00;;;;;22.02;41.74;102938.53;5079000;28;45534;-71